sensor_id;sensor_type;location;lat;lon;timestamp;pressure;altitude;pressure_sealevel;temperature;humidity
15646;BME280;7922;43.622;1.476;2023-08-06T00:00:16;100419.72;;;17.16;100.00
15646;BME280;7922;43.622;1.476;2023-08-06T00:02:41;100448.03;;;17.35;100.00
15646;BME280;7922;43.622;1.476;2023-08-06T00:05:07;100455.00;;;17.37;99.60
15646;BME280;7922;43.622;1.476;2023-08-06T00:07:32;100457.19;;;17.45;99.73
15646;BME280;7922;43.622;1.476;2023-08-06T00:09:57;100459.31;;;17.40;100.00
15646;BME280;7922;43.622;1.476;2023-08-06T00:12:23;100376.53;;;16.94;99.32
15646;BME280;7922;43.622;1.476;2023-08-06T00:14:52;100445.16;;;17.38;99.02
15646;BME280;7922;43.622;1.476;2023-08-06T00:17:17;100478.13;;;17.52;99.30
15646;BME280;7922;43.622;1.476;2023-08-06T00:19:43;100469.53;;;17.47;98.95
15646;BME280;7922;43.622;1.476;2023-08-06T00:22:08;100492.56;;;17.64;98.79
15646;BME280;7922;43.622;1.476;2023-08-06T00:24:34;100462.56;;;17.45;98.29
15646;BME280;7922;43.622;1.476;2023-08-06T00:26:59;100489.22;;;17.61;98.84
15646;BME280;7922;43.622;1.476;2023-08-06T00:29:25;100462.66;;;17.43;98.52
15646;BME280;7922;43.622;1.476;2023-08-06T00:31:50;100445.53;;;17.31;98.34
15646;BME280;7922;43.622;1.476;2023-08-06T00:34:15;100436.94;;;17.26;98.54
15646;BME280;7922;43.622;1.476;2023-08-06T00:36:41;100472.41;;;17.30;98.88
15646;BME280;7922;43.622;1.476;2023-08-06T00:39:06;100503.59;;;17.60;98.67
15646;BME280;7922;43.622;1.476;2023-08-06T00:41:31;100440.28;;;17.30;98.71
15646;BME280;7922;43.622;1.476;2023-08-06T00:43:56;100452.81;;;17.29;98.36
15646;BME280;7922;43.622;1.476;2023-08-06T00:46:22;100484.66;;;17.48;97.10
15646;BME280;7922;43.622;1.476;2023-08-06T00:48:47;100468.97;;;17.42;96.76
15646;BME280;7922;43.622;1.476;2023-08-06T00:51:13;100499.19;;;17.59;97.19
15646;BME280;7922;43.622;1.476;2023-08-06T00:53:39;100491.06;;;17.46;97.24
15646;BME280;7922;43.622;1.476;2023-08-06T00:56:06;100512.41;;;17.62;98.00
15646;BME280;7922;43.622;1.476;2023-08-06T00:58:32;100435.97;;;17.13;96.23
15646;BME280;7922;43.622;1.476;2023-08-06T01:00:57;100474.72;;;17.36;96.10
15646;BME280;7922;43.622;1.476;2023-08-06T01:03:23;100518.81;;;17.59;96.31
15646;BME280;7922;43.622;1.476;2023-08-06T01:05:48;100481.41;;;17.29;95.35
15646;BME280;7922;43.622;1.476;2023-08-06T01:11:47;100521.19;;;17.49;93.29
15646;BME280;7922;43.622;1.476;2023-08-06T01:14:23;100501.59;;;17.35;91.12
15646;BME280;7922;43.622;1.476;2023-08-06T01:16:53;100512.41;;;17.33;88.77
15646;BME280;7922;43.622;1.476;2023-08-06T01:19:20;100500.81;;;17.18;87.06
15646;BME280;7922;43.622;1.476;2023-08-06T01:21:45;100531.22;;;17.31;81.83
15646;BME280;7922;43.622;1.476;2023-08-06T01:24:11;100512.38;;;17.19;80.46
15646;BME280;7922;43.622;1.476;2023-08-06T01:26:42;100511.03;;;17.12;80.96
15646;BME280;7922;43.622;1.476;2023-08-06T01:29:13;100533.81;;;17.19;81.10
15646;BME280;7922;43.622;1.476;2023-08-06T01:31:43;100472.00;;;16.79;81.35
15646;BME280;7922;43.622;1.476;2023-08-06T01:34:19;100536.97;;;17.11;81.88
15646;BME280;7922;43.622;1.476;2023-08-06T01:36:45;100521.53;;;17.00;81.60
15646;BME280;7922;43.622;1.476;2023-08-06T01:39:11;100501.75;;;16.89;81.56
15646;BME280;7922;43.622;1.476;2023-08-06T01:41:36;100489.75;;;16.80;81.50
15646;BME280;7922;43.622;1.476;2023-08-06T01:44:02;100485.66;;;16.74;80.46
15646;BME280;7922;43.622;1.476;2023-08-06T01:46:27;100456.34;;;16.57;81.02
15646;BME280;7922;43.622;1.476;2023-08-06T01:48:52;100463.03;;;16.64;80.80
15646;BME280;7922;43.622;1.476;2023-08-06T01:51:17;100465.78;;;16.63;80.46
15646;BME280;7922;43.622;1.476;2023-08-06T01:53:43;100518.56;;;16.91;79.99
15646;BME280;7922;43.622;1.476;2023-08-06T01:56:08;100440.75;;;16.49;79.96
15646;BME280;7922;43.622;1.476;2023-08-06T01:58:33;100511.84;;;16.83;78.95
15646;BME280;7922;43.622;1.476;2023-08-06T02:00:59;100488.13;;;16.77;77.84
15646;BME280;7922;43.622;1.476;2023-08-06T02:03:24;100497.72;;;16.81;77.69
15646;BME280;7922;43.622;1.476;2023-08-06T02:05:49;100481.31;;;16.72;77.18
15646;BME280;7922;43.622;1.476;2023-08-06T02:08:15;100463.13;;;16.63;77.22
15646;BME280;7922;43.622;1.476;2023-08-06T02:10:40;100494.00;;;16.68;77.16
15646;BME280;7922;43.622;1.476;2023-08-06T02:13:05;100521.16;;;16.92;77.49
15646;BME280;7922;43.622;1.476;2023-08-06T02:15:30;100488.38;;;16.73;77.97
15646;BME280;7922;43.622;1.476;2023-08-06T02:17:56;100495.47;;;16.74;77.89
15646;BME280;7922;43.622;1.476;2023-08-06T02:20:21;100505.63;;;16.83;77.53
15646;BME280;7922;43.622;1.476;2023-08-06T02:22:46;100505.75;;;16.81;77.78
15646;BME280;7922;43.622;1.476;2023-08-06T02:25:11;100489.34;;;16.72;77.24
15646;BME280;7922;43.622;1.476;2023-08-06T02:27:37;100513.31;;;16.89;77.46
15646;BME280;7922;43.622;1.476;2023-08-06T02:30:02;100502.56;;;16.75;77.33
15646;BME280;7922;43.622;1.476;2023-08-06T02:32:28;100504.97;;;16.79;77.10
15646;BME280;7922;43.622;1.476;2023-08-06T02:34:54;100537.69;;;16.99;77.67
15646;BME280;7922;43.622;1.476;2023-08-06T02:37:19;100430.97;;;16.34;77.90
15646;BME280;7922;43.622;1.476;2023-08-06T02:39:44;100521.50;;;16.86;78.76
15646;BME280;7922;43.622;1.476;2023-08-06T02:42:10;100388.00;;;16.07;78.57
15646;BME280;7922;43.622;1.476;2023-08-06T02:44:35;100502.78;;;16.70;78.85
15646;BME280;7922;43.622;1.476;2023-08-06T02:47:01;100494.44;;;16.76;78.65
15646;BME280;7922;43.622;1.476;2023-08-06T02:49:27;100501.25;;;16.82;78.71
15646;BME280;7922;43.622;1.476;2023-08-06T02:51:52;100515.88;;;16.91;78.67
15646;BME280;7922;43.622;1.476;2023-08-06T02:54:20;100401.81;;;16.29;78.78
15646;BME280;7922;43.622;1.476;2023-08-06T02:56:46;100506.50;;;16.83;77.91
15646;BME280;7922;43.622;1.476;2023-08-06T02:59:11;100363.63;;;15.97;78.21
15646;BME280;7922;43.622;1.476;2023-08-06T03:01:36;100508.19;;;16.84;78.04
15646;BME280;7922;43.622;1.476;2023-08-06T03:04:03;100462.38;;;16.60;77.64
15646;BME280;7922;43.622;1.476;2023-08-06T03:06:29;100424.28;;;16.41;77.31
15646;BME280;7922;43.622;1.476;2023-08-06T03:08:54;100413.19;;;16.33;76.75
15646;BME280;7922;43.622;1.476;2023-08-06T03:11:19;100472.44;;;16.71;76.24
15646;BME280;7922;43.622;1.476;2023-08-06T03:13:45;100400.09;;;16.28;74.40
15646;BME280;7922;43.622;1.476;2023-08-06T03:16:10;100428.69;;;16.42;73.43
15646;BME280;7922;43.622;1.476;2023-08-06T03:18:35;100465.72;;;16.64;73.86
15646;BME280;7922;43.622;1.476;2023-08-06T03:21:01;100525.75;;;17.04;72.57
15646;BME280;7922;43.622;1.476;2023-08-06T03:23:26;100311.19;;;15.80;72.48
15646;BME280;7922;43.622;1.476;2023-08-06T03:25:51;100466.41;;;16.68;71.44
15646;BME280;7922;43.622;1.476;2023-08-06T03:28:17;100404.41;;;16.31;71.24
15646;BME280;7922;43.622;1.476;2023-08-06T03:30:42;100499.91;;;16.89;70.82
15646;BME280;7922;43.622;1.476;2023-08-06T03:33:07;100394.56;;;16.31;71.27
15646;BME280;7922;43.622;1.476;2023-08-06T03:35:33;100521.06;;;17.08;71.07
15646;BME280;7922;43.622;1.476;2023-08-06T03:37:58;100493.97;;;16.84;70.55
15646;BME280;7922;43.622;1.476;2023-08-06T03:40:23;100457.00;;;16.60;70.91
15646;BME280;7922;43.622;1.476;2023-08-06T03:42:48;100522.59;;;16.98;71.00
15646;BME280;7922;43.622;1.476;2023-08-06T03:45:14;100436.16;;;16.51;70.29
15646;BME280;7922;43.622;1.476;2023-08-06T03:47:40;100517.34;;;16.96;69.56
15646;BME280;7922;43.622;1.476;2023-08-06T03:50:06;100491.47;;;16.81;69.48
15646;BME280;7922;43.622;1.476;2023-08-06T03:52:31;100475.00;;;16.73;69.59
15646;BME280;7922;43.622;1.476;2023-08-06T03:54:56;100431.53;;;16.39;69.41
15646;BME280;7922;43.622;1.476;2023-08-06T03:57:22;100545.25;;;17.06;69.50
15646;BME280;7922;43.622;1.476;2023-08-06T03:59:47;100510.44;;;16.92;69.38
15646;BME280;7922;43.622;1.476;2023-08-06T04:02:12;100506.66;;;16.80;70.06
15646;BME280;7922;43.622;1.476;2023-08-06T04:04:37;100516.63;;;16.78;71.40
15646;BME280;7922;43.622;1.476;2023-08-06T04:07:03;100497.84;;;16.48;73.80
15646;BME280;7922;43.622;1.476;2023-08-06T04:09:29;100434.41;;;15.90;75.26
15646;BME280;7922;43.622;1.476;2023-08-06T04:11:54;100478.94;;;16.21;75.37
15646;BME280;7922;43.622;1.476;2023-08-06T04:14:19;100412.53;;;15.83;76.08
15646;BME280;7922;43.622;1.476;2023-08-06T04:16:45;100517.38;;;16.34;76.56
15646;BME280;7922;43.622;1.476;2023-08-06T04:19:10;100357.81;;;15.43;77.89
15646;BME280;7922;43.622;1.476;2023-08-06T04:21:35;100553.06;;;16.49;78.38
15646;BME280;7922;43.622;1.476;2023-08-06T04:24:01;100517.31;;;16.20;78.57
15646;BME280;7922;43.622;1.476;2023-08-06T04:26:26;100488.34;;;15.97;81.32
15646;BME280;7922;43.622;1.476;2023-08-06T04:28:51;100527.41;;;16.15;83.00
15646;BME280;7922;43.622;1.476;2023-08-06T04:31:16;100510.94;;;16.07;82.83
15646;BME280;7922;43.622;1.476;2023-08-06T04:33:42;100485.69;;;15.97;82.55
15646;BME280;7922;43.622;1.476;2023-08-06T04:36:07;100503.88;;;16.06;82.44
15646;BME280;7922;43.622;1.476;2023-08-06T04:38:33;100552.22;;;16.33;81.71
15646;BME280;7922;43.622;1.476;2023-08-06T04:40:58;100587.91;;;16.48;81.05
15646;BME280;7922;43.622;1.476;2023-08-06T04:43:23;100515.16;;;16.11;80.55
15646;BME280;7922;43.622;1.476;2023-08-06T04:45:50;100513.59;;;16.07;79.91
15646;BME280;7922;43.622;1.476;2023-08-06T04:48:15;100556.53;;;16.35;79.93
15646;BME280;7922;43.622;1.476;2023-08-06T04:50:48;100491.63;;;16.02;79.96
15646;BME280;7922;43.622;1.476;2023-08-06T04:53:14;100542.75;;;16.27;79.17
15646;BME280;7922;43.622;1.476;2023-08-06T04:55:39;100570.31;;;16.44;78.90
15646;BME280;7922;43.622;1.476;2023-08-06T04:58:05;100473.97;;;15.83;78.56
15646;BME280;7922;43.622;1.476;2023-08-06T05:00:31;100563.88;;;16.32;77.98
15646;BME280;7922;43.622;1.476;2023-08-06T05:02:56;100509.97;;;16.08;77.99
15646;BME280;7922;43.622;1.476;2023-08-06T05:05:21;100498.19;;;15.96;77.38
15646;BME280;7922;43.622;1.476;2023-08-06T05:07:49;100513.44;;;16.10;77.10
15646;BME280;7922;43.622;1.476;2023-08-06T05:10:14;100499.47;;;15.89;76.46
15646;BME280;7922;43.622;1.476;2023-08-06T05:12:40;100450.78;;;15.68;76.36
15646;BME280;7922;43.622;1.476;2023-08-06T05:15:06;100487.66;;;15.93;75.14
15646;BME280;7922;43.622;1.476;2023-08-06T05:17:31;100604.88;;;16.63;75.18
15646;BME280;7922;43.622;1.476;2023-08-06T05:19:56;100516.38;;;16.05;73.92
15646;BME280;7922;43.622;1.476;2023-08-06T05:22:22;100492.84;;;15.96;73.59
15646;BME280;7922;43.622;1.476;2023-08-06T05:24:47;100569.63;;;16.40;73.22
15646;BME280;7922;43.622;1.476;2023-08-06T05:27:12;100537.13;;;16.32;73.50
15646;BME280;7922;43.622;1.476;2023-08-06T05:29:37;100537.41;;;16.27;73.09
15646;BME280;7922;43.622;1.476;2023-08-06T05:32:03;100559.63;;;16.44;72.09
15646;BME280;7922;43.622;1.476;2023-08-06T05:34:28;100602.56;;;16.72;72.23
15646;BME280;7922;43.622;1.476;2023-08-06T05:36:54;100534.19;;;16.36;71.25
15646;BME280;7922;43.622;1.476;2023-08-06T05:39:19;100517.22;;;16.22;70.01
15646;BME280;7922;43.622;1.476;2023-08-06T05:41:44;100578.00;;;16.50;68.05
15646;BME280;7922;43.622;1.476;2023-08-06T05:44:09;100537.03;;;16.33;67.85
15646;BME280;7922;43.622;1.476;2023-08-06T05:46:35;100610.09;;;16.81;65.89
15646;BME280;7922;43.622;1.476;2023-08-06T05:49:00;100477.94;;;15.92;65.68
15646;BME280;7922;43.622;1.476;2023-08-06T05:51:26;100577.44;;;16.59;65.19
15646;BME280;7922;43.622;1.476;2023-08-06T05:53:51;100602.56;;;16.72;65.41
15646;BME280;7922;43.622;1.476;2023-08-06T05:56:17;100487.91;;;16.04;63.87
15646;BME280;7922;43.622;1.476;2023-08-06T05:58:42;100642.63;;;16.90;64.80
15646;BME280;7922;43.622;1.476;2023-08-06T06:01:07;100521.59;;;16.23;65.04
15646;BME280;7922;43.622;1.476;2023-08-06T06:03:33;100602.31;;;16.61;65.18
15646;BME280;7922;43.622;1.476;2023-08-06T06:06:00;100576.47;;;16.46;65.79
15646;BME280;7922;43.622;1.476;2023-08-06T06:08:26;100597.56;;;16.66;66.03
15646;BME280;7922;43.622;1.476;2023-08-06T06:10:51;100573.00;;;16.59;66.08
15646;BME280;7922;43.622;1.476;2023-08-06T06:13:16;100565.22;;;16.55;66.33
15646;BME280;7922;43.622;1.476;2023-08-06T06:15:41;100620.28;;;16.75;66.88
15646;BME280;7922;43.622;1.476;2023-08-06T06:18:07;100577.22;;;16.48;67.09
15646;BME280;7922;43.622;1.476;2023-08-06T06:20:32;100560.75;;;16.40;67.29
15646;BME280;7922;43.622;1.476;2023-08-06T06:22:57;100569.75;;;16.39;67.93
15646;BME280;7922;43.622;1.476;2023-08-06T06:25:23;100549.97;;;16.41;67.69
15646;BME280;7922;43.622;1.476;2023-08-06T06:27:48;100617.66;;;16.73;68.38
15646;BME280;7922;43.622;1.476;2023-08-06T06:30:13;100549.09;;;16.41;68.53
15646;BME280;7922;43.622;1.476;2023-08-06T06:32:38;100570.31;;;16.59;68.33
15646;BME280;7922;43.622;1.476;2023-08-06T06:35:04;100611.03;;;16.80;68.60
15646;BME280;7922;43.622;1.476;2023-08-06T06:37:29;100585.94;;;16.51;69.31
15646;BME280;7922;43.622;1.476;2023-08-06T06:39:55;100660.38;;;16.91;69.41
15646;BME280;7922;43.622;1.476;2023-08-06T06:42:20;100578.94;;;16.33;69.59
15646;BME280;7922;43.622;1.476;2023-08-06T06:44:45;100643.91;;;16.82;69.78
15646;BME280;7922;43.622;1.476;2023-08-06T06:47:11;100674.19;;;16.99;69.45
15646;BME280;7922;43.622;1.476;2023-08-06T06:49:36;100656.69;;;16.93;67.37
15646;BME280;7922;43.622;1.476;2023-08-06T06:52:01;100648.94;;;16.89;68.80
15646;BME280;7922;43.622;1.476;2023-08-06T06:54:26;100673.88;;;17.19;68.04
15646;BME280;7922;43.622;1.476;2023-08-06T06:56:52;100648.31;;;16.99;66.96
15646;BME280;7922;43.622;1.476;2023-08-06T06:59:17;100656.19;;;17.17;66.18
15646;BME280;7922;43.622;1.476;2023-08-06T07:01:42;100670.84;;;17.55;65.72
15646;BME280;7922;43.622;1.476;2023-08-06T07:04:08;100687.53;;;17.45;65.34
15646;BME280;7922;43.622;1.476;2023-08-06T07:06:33;100658.59;;;17.51;64.49
15646;BME280;7922;43.622;1.476;2023-08-06T07:08:58;100678.59;;;17.74;63.95
15646;BME280;7922;43.622;1.476;2023-08-06T07:11:23;100659.56;;;17.65;63.92
15646;BME280;7922;43.622;1.476;2023-08-06T07:13:50;100683.94;;;17.90;63.53
15646;BME280;7922;43.622;1.476;2023-08-06T07:16:21;100710.47;;;17.95;63.06
15646;BME280;7922;43.622;1.476;2023-08-06T07:18:46;100618.75;;;17.45;62.11
15646;BME280;7922;43.622;1.476;2023-08-06T07:21:11;100681.34;;;17.89;62.63
15646;BME280;7922;43.622;1.476;2023-08-06T07:23:36;100629.13;;;17.51;61.84
15646;BME280;7922;43.622;1.476;2023-08-06T07:26:02;100654.16;;;17.80;61.28
15646;BME280;7922;43.622;1.476;2023-08-06T07:28:27;100664.03;;;17.94;61.24
15646;BME280;7922;43.622;1.476;2023-08-06T07:30:52;100612.09;;;17.67;60.88
15646;BME280;7922;43.622;1.476;2023-08-06T07:33:18;100694.25;;;18.39;59.96
15646;BME280;7922;43.622;1.476;2023-08-06T07:35:43;100657.56;;;18.25;59.24
15646;BME280;7922;43.622;1.476;2023-08-06T07:38:08;100701.34;;;18.40;58.90
15646;BME280;7922;43.622;1.476;2023-08-06T07:40:35;100605.41;;;17.74;58.63
15646;BME280;7922;43.622;1.476;2023-08-06T07:43:00;100700.13;;;18.32;58.85
15646;BME280;7922;43.622;1.476;2023-08-06T07:45:26;100672.16;;;18.07;59.40
15646;BME280;7922;43.622;1.476;2023-08-06T07:47:51;100647.16;;;18.07;57.99
15646;BME280;7922;43.622;1.476;2023-08-06T07:50:16;100672.25;;;18.34;58.61
15646;BME280;7922;43.622;1.476;2023-08-06T07:52:42;100690.75;;;18.66;57.97
15646;BME280;7922;43.622;1.476;2023-08-06T07:55:07;100707.34;;;18.58;58.26
15646;BME280;7922;43.622;1.476;2023-08-06T07:57:33;100658.06;;;18.32;57.87
15646;BME280;7922;43.622;1.476;2023-08-06T07:59:58;100666.44;;;18.55;57.76
15646;BME280;7922;43.622;1.476;2023-08-06T08:02:24;100704.47;;;18.61;57.66
15646;BME280;7922;43.622;1.476;2023-08-06T08:04:49;100662.19;;;18.38;57.34
15646;BME280;7922;43.622;1.476;2023-08-06T08:07:14;100613.75;;;18.12;57.35
15646;BME280;7922;43.622;1.476;2023-08-06T08:09:40;100665.72;;;18.24;57.48
15646;BME280;7922;43.622;1.476;2023-08-06T08:12:05;100688.13;;;18.37;57.81
15646;BME280;7922;43.622;1.476;2023-08-06T08:14:31;100673.34;;;18.44;57.38
15646;BME280;7922;43.622;1.476;2023-08-06T08:16:56;100592.50;;;17.95;56.59
15646;BME280;7922;43.622;1.476;2023-08-06T08:19:21;100648.34;;;18.44;56.64
15646;BME280;7922;43.622;1.476;2023-08-06T08:21:47;100675.78;;;18.90;56.39
15646;BME280;7922;43.622;1.476;2023-08-06T08:24:12;100703.81;;;19.26;54.34
15646;BME280;7922;43.622;1.476;2023-08-06T08:26:37;100576.09;;;18.82;54.25
15646;BME280;7922;43.622;1.476;2023-08-06T08:29:02;100631.50;;;19.10;53.67
15646;BME280;7922;43.622;1.476;2023-08-06T08:31:28;100722.88;;;19.63;53.79
15646;BME280;7922;43.622;1.476;2023-08-06T08:33:53;100718.31;;;19.23;53.58
15646;BME280;7922;43.622;1.476;2023-08-06T08:36:18;100700.34;;;19.11;53.75
15646;BME280;7922;43.622;1.476;2023-08-06T08:38:44;100689.31;;;18.89;54.52
15646;BME280;7922;43.622;1.476;2023-08-06T08:41:09;100675.31;;;18.84;54.64
15646;BME280;7922;43.622;1.476;2023-08-06T08:43:35;100724.41;;;19.13;54.62
15646;BME280;7922;43.622;1.476;2023-08-06T08:46:01;100656.50;;;18.84;54.49
15646;BME280;7922;43.622;1.476;2023-08-06T08:48:29;100679.25;;;19.45;53.02
15646;BME280;7922;43.622;1.476;2023-08-06T08:50:55;100558.69;;;18.75;52.45
15646;BME280;7922;43.622;1.476;2023-08-06T08:53:21;100691.38;;;19.65;52.41
15646;BME280;7922;43.622;1.476;2023-08-06T08:55:48;100603.06;;;18.93;52.77
15646;BME280;7922;43.622;1.476;2023-08-06T08:58:14;100679.91;;;19.09;52.90
15646;BME280;7922;43.622;1.476;2023-08-06T09:00:45;100663.66;;;18.97;53.08
15646;BME280;7922;43.622;1.476;2023-08-06T09:03:11;100644.03;;;19.10;52.51
15646;BME280;7922;43.622;1.476;2023-08-06T09:05:42;100691.97;;;19.16;52.33
15646;BME280;7922;43.622;1.476;2023-08-06T09:08:11;100675.53;;;19.20;52.20
15646;BME280;7922;43.622;1.476;2023-08-06T09:10:36;100669.56;;;19.42;51.78
15646;BME280;7922;43.622;1.476;2023-08-06T09:13:02;100673.44;;;19.38;51.90
15646;BME280;7922;43.622;1.476;2023-08-06T09:15:27;100665.97;;;19.16;51.80
15646;BME280;7922;43.622;1.476;2023-08-06T09:17:54;100732.16;;;19.44;52.37
15646;BME280;7922;43.622;1.476;2023-08-06T09:20:19;100596.28;;;18.61;51.78
15646;BME280;7922;43.622;1.476;2023-08-06T09:22:45;100680.44;;;19.01;52.27
15646;BME280;7922;43.622;1.476;2023-08-06T09:25:10;100698.41;;;19.13;52.86
15646;BME280;7922;43.622;1.476;2023-08-06T09:27:37;100701.16;;;19.39;53.19
15646;BME280;7922;43.622;1.476;2023-08-06T09:30:03;100689.75;;;19.22;52.86
15646;BME280;7922;43.622;1.476;2023-08-06T09:32:45;100665.84;;;20.22;51.05
15646;BME280;7922;43.622;1.476;2023-08-06T09:35:15;100638.97;;;20.58;49.45
15646;BME280;7922;43.622;1.476;2023-08-06T09:37:41;100641.91;;;20.42;48.77
15646;BME280;7922;43.622;1.476;2023-08-06T09:40:24;100632.44;;;19.87;49.86
15646;BME280;7922;43.622;1.476;2023-08-06T09:42:49;100687.69;;;20.30;50.26
15646;BME280;7922;43.622;1.476;2023-08-06T09:45:17;100665.53;;;20.26;50.48
15646;BME280;7922;43.622;1.476;2023-08-06T09:47:42;100679.00;;;19.88;51.56
15646;BME280;7922;43.622;1.476;2023-08-06T09:50:20;100695.91;;;20.03;51.11
15646;BME280;7922;43.622;1.476;2023-08-06T09:52:50;100672.22;;;19.95;51.27
15646;BME280;7922;43.622;1.476;2023-08-06T09:55:18;100614.28;;;19.13;51.06
15646;BME280;7922;43.622;1.476;2023-08-06T09:57:43;100688.22;;;20.22;50.02
15646;BME280;7922;43.622;1.476;2023-08-06T10:00:10;100682.94;;;20.33;48.57
15646;BME280;7922;43.622;1.476;2023-08-06T10:02:37;100685.94;;;20.54;49.04
15646;BME280;7922;43.622;1.476;2023-08-06T10:05:03;100635.22;;;20.85;46.87
15646;BME280;7922;43.622;1.476;2023-08-06T10:07:30;100690.88;;;20.60;47.07
15646;BME280;7922;43.622;1.476;2023-08-06T10:09:55;100706.38;;;20.94;46.78
15646;BME280;7922;43.622;1.476;2023-08-06T10:12:22;100696.00;;;20.76;46.98
15646;BME280;7922;43.622;1.476;2023-08-06T10:14:49;100683.81;;;20.34;47.48
15646;BME280;7922;43.622;1.476;2023-08-06T10:17:15;100629.31;;;19.81;48.74
15646;BME280;7922;43.622;1.476;2023-08-06T10:19:41;100710.53;;;19.99;48.55
15646;BME280;7922;43.622;1.476;2023-08-06T10:22:18;100649.00;;;20.43;46.82
15646;BME280;7922;43.622;1.476;2023-08-06T10:27:11;100699.00;;;21.32;45.40
15646;BME280;7922;43.622;1.476;2023-08-06T10:29:37;100656.06;;;21.18;44.83
15646;BME280;7922;43.622;1.476;2023-08-06T10:32:03;100658.94;;;20.80;45.30
15646;BME280;7922;43.622;1.476;2023-08-06T10:34:54;100704.41;;;20.84;45.88
15646;BME280;7922;43.622;1.476;2023-08-06T10:37:20;100701.50;;;20.75;45.49
15646;BME280;7922;43.622;1.476;2023-08-06T10:39:52;100704.97;;;21.01;46.23
15646;BME280;7922;43.622;1.476;2023-08-06T10:42:21;100651.94;;;21.01;44.48
15646;BME280;7922;43.622;1.476;2023-08-06T10:45:16;100708.91;;;20.84;44.19
15646;BME280;7922;43.622;1.476;2023-08-06T10:47:45;100690.09;;;20.95;44.53
15646;BME280;7922;43.622;1.476;2023-08-06T10:50:15;100681.34;;;21.28;44.90
15646;BME280;7922;43.622;1.476;2023-08-06T10:52:41;100654.41;;;20.80;44.96
15646;BME280;7922;43.622;1.476;2023-08-06T10:55:07;100659.06;;;20.78;45.88
15646;BME280;7922;43.622;1.476;2023-08-06T10:57:32;100683.22;;;20.67;46.51
15646;BME280;7922;43.622;1.476;2023-08-06T10:59:58;100621.16;;;20.44;45.97
15646;BME280;7922;43.622;1.476;2023-08-06T11:02:23;100642.69;;;21.41;44.94
15646;BME280;7922;43.622;1.476;2023-08-06T11:04:48;100658.19;;;21.02;44.85
15646;BME280;7922;43.622;1.476;2023-08-06T11:07:14;100682.78;;;21.21;44.47
15646;BME280;7922;43.622;1.476;2023-08-06T11:09:39;100660.81;;;20.90;45.18
15646;BME280;7922;43.622;1.476;2023-08-06T11:12:10;100562.38;;;20.38;45.30
15646;BME280;7922;43.622;1.476;2023-08-06T11:14:36;100684.97;;;20.92;46.21
15646;BME280;7922;43.622;1.476;2023-08-06T11:17:01;100639.44;;;20.76;44.72
15646;BME280;7922;43.622;1.476;2023-08-06T11:19:31;100655.63;;;21.00;44.17
15646;BME280;7922;43.622;1.476;2023-08-06T11:21:56;100675.38;;;20.64;45.67
15646;BME280;7922;43.622;1.476;2023-08-06T11:24:24;100652.91;;;20.39;46.04
15646;BME280;7922;43.622;1.476;2023-08-06T11:26:49;100625.78;;;20.42;45.67
15646;BME280;7922;43.622;1.476;2023-08-06T11:29:15;100613.97;;;20.93;44.90
15646;BME280;7922;43.622;1.476;2023-08-06T11:31:41;100532.66;;;20.40;44.69
15646;BME280;7922;43.622;1.476;2023-08-06T11:34:09;100586.59;;;20.75;44.48
15646;BME280;7922;43.622;1.476;2023-08-06T11:36:39;100647.59;;;21.35;44.21
15646;BME280;7922;43.622;1.476;2023-08-06T11:39:05;100564.81;;;21.13;44.07
15646;BME280;7922;43.622;1.476;2023-08-06T11:44:00;100606.75;;;21.29;43.30
15646;BME280;7922;43.622;1.476;2023-08-06T11:46:25;100602.91;;;21.89;42.46
15646;BME280;7922;43.622;1.476;2023-08-06T11:48:57;100624.56;;;22.66;40.76
15646;BME280;7922;43.622;1.476;2023-08-06T11:51:24;100574.59;;;21.72;41.47
15646;BME280;7922;43.622;1.476;2023-08-06T11:53:50;100611.03;;;22.11;41.07
15646;BME280;7922;43.622;1.476;2023-08-06T11:56:15;100649.69;;;21.43;43.39
15646;BME280;7922;43.622;1.476;2023-08-06T11:58:42;100622.84;;;21.42;43.04
15646;BME280;7922;43.622;1.476;2023-08-06T12:01:07;100624.28;;;22.15;41.67
15646;BME280;7922;43.622;1.476;2023-08-06T12:03:32;100584.63;;;21.59;41.85
15646;BME280;7922;43.622;1.476;2023-08-06T12:05:57;100622.66;;;22.12;41.15
15646;BME280;7922;43.622;1.476;2023-08-06T12:08:26;100534.81;;;21.29;41.97
15646;BME280;7922;43.622;1.476;2023-08-06T12:10:52;100628.56;;;22.17;41.10
15646;BME280;7922;43.622;1.476;2023-08-06T12:13:17;100577.31;;;21.83;40.79
15646;BME280;7922;43.622;1.476;2023-08-06T12:15:45;100611.84;;;22.46;40.85
15646;BME280;7922;43.622;1.476;2023-08-06T12:18:10;100533.13;;;22.18;41.06
15646;BME280;7922;43.622;1.476;2023-08-06T12:20:35;100609.94;;;22.14;41.01
15646;BME280;7922;43.622;1.476;2023-08-06T12:23:01;100594.31;;;22.40;40.00
15646;BME280;7922;43.622;1.476;2023-08-06T12:25:26;100609.47;;;22.64;39.29
15646;BME280;7922;43.622;1.476;2023-08-06T12:27:51;100619.47;;;22.29;40.57
15646;BME280;7922;43.622;1.476;2023-08-06T12:30:16;100644.03;;;22.26;41.00
15646;BME280;7922;43.622;1.476;2023-08-06T12:32:42;100581.44;;;21.43;41.71
15646;BME280;7922;43.622;1.476;2023-08-06T12:35:08;100620.44;;;21.72;41.85
15646;BME280;7922;43.622;1.476;2023-08-06T12:37:34;100600.44;;;21.52;42.17
15646;BME280;7922;43.622;1.476;2023-08-06T12:39:59;100608.53;;;21.63;41.31
15646;BME280;7922;43.622;1.476;2023-08-06T12:42:24;100570.53;;;21.67;41.28
15646;BME280;7922;43.622;1.476;2023-08-06T12:44:50;100621.47;;;22.27;39.36
15646;BME280;7922;43.622;1.476;2023-08-06T12:47:16;100584.38;;;22.41;38.95
15646;BME280;7922;43.622;1.476;2023-08-06T12:49:42;100592.28;;;22.65;38.94
15646;BME280;7922;43.622;1.476;2023-08-06T12:52:07;100610.72;;;23.24;38.21
15646;BME280;7922;43.622;1.476;2023-08-06T12:54:33;100601.94;;;23.73;37.13
15646;BME280;7922;43.622;1.476;2023-08-06T12:56:58;100609.81;;;23.76;36.61
15646;BME280;7922;43.622;1.476;2023-08-06T12:59:23;100630.69;;;23.12;38.25
15646;BME280;7922;43.622;1.476;2023-08-06T13:01:49;100561.84;;;22.19;39.86